Time;durP1;ratioP1;P1;durP2;ratioP2;P2;SDS_P1;SDS_P2;PMS_P1;PMS_P2;Temp;Humidity;BMP_temperature;BMP_pressure;BME280_temperature;BME280_humidity;BME280_pressure;Samples;Min_cycle;Max_cycle;Signal;HPM_P1;HPM_P2
2021/07/12 00:00:43;;;;;;;17.15;14.73;;;22.60;99.90;;;;;;5071007;28;20211;-73
2021/07/12 00:03:11;;;;;;;16.13;14.45;;;22.50;99.90;;;;;;5070666;28;20260;-74
2021/07/12 00:05:40;;;;;;;16.08;12.80;;;22.50;99.90;;;;;;5070697;28;20677;-72
2021/07/12 00:08:08;;;;;;;13.77;9.93;;;22.50;99.90;;;;;;5070407;28;20202;-74
2021/07/12 00:10:35;;;;;;;9.18;6.68;;;22.40;99.90;;;;;;5070678;28;20622;-74
2021/07/12 00:13:04;;;;;;;5.70;5.10;;;22.40;99.90;;;;;;5071095;28;20210;-73
2021/07/12 00:15:31;;;;;;;6.95;5.57;;;22.40;99.90;;;;;;5071365;28;20210;-73
2021/07/12 00:17:59;;;;;;;7.78;4.03;;;22.40;99.90;;;;;;5070488;28;20588;-74
2021/07/12 00:20:27;;;;;;;4.45;4.05;;;22.40;99.90;;;;;;5069731;28;20214;-74
2021/07/12 00:22:57;;;;;;;5.72;4.72;;;22.40;99.90;;;;;;5070052;28;20230;-74
2021/07/12 00:25:25;;;;;;;7.40;4.93;;;22.40;99.90;;;;;;5070228;28;20213;-73
2021/07/12 00:27:53;;;;;;;5.78;3.95;;;22.50;99.90;;;;;;5070596;28;20209;-73
2021/07/12 00:30:21;;;;;;;6.75;4.35;;;22.40;99.90;;;;;;5070132;28;20670;-72
2021/07/12 00:32:49;;;;;;;4.93;4.30;;;22.40;99.90;;;;;;5070446;28;20251;-75
2021/07/12 00:35:17;;;;;;;5.13;4.38;;;22.20;99.90;;;;;;5070134;28;20210;-71
2021/07/12 00:37:46;;;;;;;4.85;4.43;;;22.10;99.90;;;;;;5070078;28;20255;-74
2021/07/12 00:40:15;;;;;;;5.80;4.88;;;22.00;99.90;;;;;;5070528;28;20206;-73
2021/07/12 00:42:43;;;;;;;6.60;4.80;;;22.00;99.90;;;;;;5070377;28;20281;-73
2021/07/12 00:45:13;;;;;;;9.48;5.15;;;21.80;99.90;;;;;;5069810;28;20206;-73
2021/07/12 00:47:40;;;;;;;6.00;5.25;;;21.80;99.90;;;;;;5070414;28;20206;-71
2021/07/12 00:50:09;;;;;;;5.63;5.00;;;21.70;99.90;;;;;;5069883;28;20232;-70
2021/07/12 00:52:37;;;;;;;7.53;5.97;;;21.50;99.90;;;;;;5070132;28;20264;-71
2021/07/12 00:55:16;;;;;;;6.80;5.82;;;21.50;99.90;;;;;;5070064;28;20582;-72
2021/07/12 00:57:43;;;;;;;6.30;5.70;;;21.50;99.90;;;;;;5070340;28;20202;-73
2021/07/12 01:00:12;;;;;;;6.18;5.30;;;21.40;99.90;;;;;;5070125;28;20278;-73
2021/07/12 01:02:39;;;;;;;7.60;6.13;;;21.30;99.90;;;;;;5069766;28;20198;-71
2021/07/12 01:05:10;;;;;;;6.65;5.97;;;21.30;99.90;;;;;;5069456;28;20271;-71
2021/07/12 01:07:37;;;;;;;7.55;6.85;;;21.30;99.90;;;;;;5070150;28;20210;-72
2021/07/12 01:10:06;;;;;;;7.07;5.85;;;21.30;99.90;;;;;;5070743;28;20354;-72
2021/07/12 01:12:42;;;;;;;8.20;6.50;;;21.40;99.90;;;;;;5070312;28;20206;-74
2021/07/12 01:15:13;;;;;;;7.70;6.00;;;21.40;99.90;;;;;;5069868;28;20590;-74
2021/07/12 01:17:53;;;;;;;6.65;5.97;;;21.30;99.90;;;;;;5070140;28;20263;-74
2021/07/12 01:20:46;;;;;;;11.18;6.38;;;21.30;99.90;;;;;;5069745;28;20251;-71
2021/07/12 01:23:34;;;;;;;8.45;6.45;;;21.30;99.90;;;;;;5069563;28;20236;-73
2021/07/12 01:26:31;;;;;;;6.97;6.32;;;21.20;99.90;;;;;;5070207;28;20210;-73
2021/07/12 01:29:28;;;;;;;7.22;5.68;;;21.20;99.90;;;;;;5068909;28;20260;-72
2021/07/12 01:32:37;;;;;;;9.68;6.00;;;21.10;99.90;;;;;;5061600;28;20210;-72
2021/07/12 01:35:09;;;;;;;7.53;6.70;;;21.10;99.90;;;;;;5073954;28;20259;-72
2021/07/12 01:37:45;;;;;;;10.63;7.57;;;21.00;99.90;;;;;;5073739;28;20704;-72
2021/07/12 01:40:19;;;;;;;11.70;7.00;;;21.00;99.90;;;;;;5073414;28;20208;-69
2021/07/12 01:42:52;;;;;;;8.90;7.30;;;21.10;99.90;;;;;;5073755;28;20210;-71
2021/07/12 01:45:20;;;;;;;7.75;7.00;;;21.10;99.90;;;;;;5073247;28;20259;-73
2021/07/12 01:48:00;;;;;;;7.90;7.10;;;21.00;99.90;;;;;;5073223;28;20214;-72
2021/07/12 01:50:32;;;;;;;8.98;7.57;;;21.10;99.90;;;;;;5072884;28;20213;-73
2021/07/12 01:53:09;;;;;;;9.10;7.22;;;21.00;99.90;;;;;;5073623;28;20202;-72
2021/07/12 01:55:42;;;;;;;10.73;7.43;;;21.00;99.90;;;;;;5073350;28;20255;-73
2021/07/12 01:58:15;;;;;;;9.23;8.30;;;21.00;99.90;;;;;;5072604;28;20252;-71
2021/07/12 02:00:46;;;;;;;9.55;8.35;;;20.90;99.90;;;;;;5073261;28;20620;-73
2021/07/12 02:03:17;;;;;;;9.02;7.55;;;20.90;99.90;;;;;;5072357;28;20230;-75
2021/07/12 02:05:45;;;;;;;10.88;9.10;;;21.00;99.90;;;;;;5073334;28;20267;-72
2021/07/12 02:08:17;;;;;;;9.20;8.15;;;20.80;99.90;;;;;;5072696;28;20727;-69
2021/07/12 02:10:46;;;;;;;9.40;8.57;;;20.70;99.90;;;;;;5073012;28;20198;-72
2021/07/12 02:13:14;;;;;;;10.43;7.75;;;20.70;99.90;;;;;;5072808;28;20207;-71
2021/07/12 02:15:46;;;;;;;8.95;8.18;;;20.60;99.90;;;;;;5072898;28;20666;-71
2021/07/12 02:18:15;;;;;;;8.85;7.90;;;20.60;99.90;;;;;;5072524;28;20206;-71
2021/07/12 02:20:45;;;;;;;10.60;7.00;;;20.60;99.90;;;;;;5072849;28;20203;-73
2021/07/12 02:23:12;;;;;;;7.03;6.25;;;20.70;99.90;;;;;;5072159;28;20767;-71
2021/07/12 02:25:41;;;;;;;8.02;7.20;;;20.60;99.90;;;;;;5072663;28;20222;-72
2021/07/12 02:28:09;;;;;;;8.57;7.30;;;20.60;99.90;;;;;;5072365;28;20202;-72
2021/07/12 02:30:37;;;;;;;9.73;6.88;;;20.60;99.90;;;;;;5072480;28;20739;-71
2021/07/12 02:33:05;;;;;;;9.27;7.00;;;20.50;99.90;;;;;;5072669;28;20252;-71
2021/07/12 02:35:34;;;;;;;9.07;7.10;;;20.50;99.90;;;;;;5072961;28;20202;-71
2021/07/12 02:38:02;;;;;;;8.55;7.38;;;20.50;99.90;;;;;;5073090;28;20276;-72
2021/07/12 02:40:29;;;;;;;7.57;5.38;;;20.40;99.90;;;;;;5072230;28;20673;-71
2021/07/12 02:42:59;;;;;;;7.32;6.40;;;20.50;99.90;;;;;;5072265;28;20253;-71
2021/07/12 02:45:27;;;;;;;8.48;5.70;;;20.50;99.90;;;;;;5072059;28;20635;-72
2021/07/12 02:47:54;;;;;;;9.73;5.88;;;20.50;99.90;;;;;;5072211;28;20259;-71
2021/07/12 02:50:22;;;;;;;5.47;4.97;;;20.50;99.90;;;;;;5071973;28;20670;-72
2021/07/12 02:52:59;;;;;;;6.53;5.90;;;20.40;99.90;;;;;;5072226;28;20206;-70
2021/07/12 02:55:27;;;;;;;5.47;4.55;;;20.50;99.90;;;;;;5071907;28;20267;-71
2021/07/12 02:57:54;;;;;;;5.50;4.43;;;20.40;99.90;;;;;;5072050;28;20553;-72
2021/07/12 03:00:22;;;;;;;5.90;5.03;;;20.50;99.90;;;;;;5071787;28;20202;-72
2021/07/12 03:02:49;;;;;;;8.00;5.32;;;20.50;99.90;;;;;;5072036;28;20669;-73
2021/07/12 03:05:16;;;;;;;6.38;5.03;;;20.50;99.90;;;;;;5071580;28;20720;-73
2021/07/12 03:07:47;;;;;;;5.80;4.82;;;20.50;99.90;;;;;;5071948;28;20214;-73
2021/07/12 03:10:18;;;;;;;4.28;3.88;;;20.40;99.90;;;;;;5071614;28;20194;-73
2021/07/12 03:12:48;;;;;;;7.45;4.35;;;20.50;99.90;;;;;;5071884;28;20662;-70
2021/07/12 03:15:16;;;;;;;6.78;4.38;;;20.50;99.90;;;;;;5070917;28;20581;-71
2021/07/12 03:17:48;;;;;;;7.55;3.53;;;20.30;99.90;;;;;;5071844;28;20297;-71
2021/07/12 03:20:16;;;;;;;4.75;3.92;;;20.30;99.90;;;;;;5071241;28;20240;-73
2021/07/12 03:22:47;;;;;;;5.47;4.35;;;20.30;99.90;;;;;;5071743;28;20214;-72
2021/07/12 03:25:22;;;;;;;5.00;3.65;;;20.40;99.90;;;;;;5070932;28;20287;-73
2021/07/12 03:27:53;;;;;;;5.03;4.18;;;20.30;99.90;;;;;;5071511;28;20235;-70
2021/07/12 03:30:20;;;;;;;4.72;3.38;;;20.30;99.90;;;;;;5070987;28;20279;-71
2021/07/12 03:32:48;;;;;;;4.57;4.18;;;20.30;99.90;;;;;;5071441;28;20206;-72
2021/07/12 03:35:17;;;;;;;4.20;3.80;;;20.30;99.90;;;;;;5070814;28;20755;-72
2021/07/12 03:37:44;;;;;;;3.78;3.33;;;20.40;99.90;;;;;;5071420;28;20569;-73
2021/07/12 03:40:13;;;;;;;5.53;4.20;;;20.40;99.90;;;;;;5071232;28;20252;-72
2021/07/12 03:42:41;;;;;;;4.22;3.67;;;20.40;99.90;;;;;;5071027;28;20206;-70
2021/07/12 03:45:10;;;;;;;3.92;3.47;;;20.30;99.90;;;;;;5070828;28;20283;-69
2021/07/12 03:47:38;;;;;;;3.53;3.22;;;20.30;99.90;;;;;;5070925;28;20198;-70
2021/07/12 03:50:10;;;;;;;6.18;3.30;;;20.20;99.90;;;;;;5071489;28;20214;-69
2021/07/12 03:52:42;;;;;;;6.78;3.40;;;20.20;99.90;;;;;;5071018;28;20511;-70
2021/07/12 03:55:10;;;;;;;4.15;3.75;;;20.20;99.90;;;;;;5069693;28;20681;-72
2021/07/12 03:57:37;;;;;;;6.25;3.90;;;20.30;99.90;;;;;;5071202;28;20252;-73
2021/07/12 04:00:08;;;;;;;6.90;4.88;;;20.20;99.90;;;;;;5070922;28;20206;-71
2021/07/12 04:02:36;;;;;;;5.35;4.43;;;20.20;99.90;;;;;;5071092;28;20392;-72
2021/07/12 04:05:04;;;;;;;5.47;3.78;;;20.20;99.90;;;;;;5071118;28;20225;-72
2021/07/12 04:07:30;;;;;;;5.43;3.83;;;20.20;99.90;;;;;;5071157;28;20209;-71
2021/07/12 04:09:58;;;;;;;4.63;3.22;;;20.20;99.90;;;;;;5070858;28;20275;-71
2021/07/12 04:12:25;;;;;;;6.63;4.22;;;20.10;99.90;;;;;;5070338;28;20206;-72
2021/07/12 04:14:52;;;;;;;5.30;3.67;;;20.10;99.90;;;;;;5070616;28;20206;-71
2021/07/12 04:17:21;;;;;;;9.32;3.50;;;20.20;99.90;;;;;;5070527;28;20206;-69
2021/07/12 04:19:52;;;;;;;4.20;3.40;;;20.20;99.90;;;;;;5070969;28;20629;-72
2021/07/12 04:22:19;;;;;;;5.97;3.75;;;20.20;99.90;;;;;;5056591;28;20256;-72
2021/07/12 04:24:46;;;;;;;3.92;3.53;;;20.10;99.90;;;;;;5070294;28;20238;-71
2021/07/12 04:27:13;;;;;;;4.38;3.55;;;20.00;99.90;;;;;;5070109;28;20252;-73
2021/07/12 04:29:40;;;;;;;6.50;3.47;;;20.20;99.90;;;;;;5070910;28;20206;-72
2021/07/12 04:32:08;;;;;;;5.60;3.10;;;20.10;99.90;;;;;;5070073;28;20198;-72
2021/07/12 04:34:36;;;;;;;4.22;3.83;;;20.10;99.90;;;;;;5070614;28;20206;-70
2021/07/12 04:37:04;;;;;;;7.20;2.80;;;20.10;99.90;;;;;;5070603;28;20211;-69
2021/07/12 04:39:31;;;;;;;4.80;3.15;;;20.00;99.90;;;;;;5070694;28;20206;-72
2021/07/12 04:41:58;;;;;;;3.95;3.53;;;20.00;99.90;;;;;;5070433;28;20259;-73
2021/07/12 04:44:25;;;;;;;4.07;3.53;;;20.00;99.90;;;;;;5056341;28;20230;-72
2021/07/12 04:46:53;;;;;;;4.32;3.28;;;20.10;99.90;;;;;;5070297;28;20577;-71
2021/07/12 04:49:20;;;;;;;3.83;2.97;;;20.10;99.90;;;;;;5069904;28;20289;-70
2021/07/12 04:51:49;;;;;;;4.03;3.50;;;20.00;99.90;;;;;;5070324;28;20206;-72
2021/07/12 04:54:17;;;;;;;3.63;3.33;;;20.00;99.90;;;;;;5069880;28;20210;-70
2021/07/12 04:56:43;;;;;;;8.32;3.50;;;20.00;99.90;;;;;;5069671;28;20206;-70
2021/07/12 04:59:11;;;;;;;3.78;3.40;;;20.00;99.90;;;;;;5070242;28;20202;-73
2021/07/12 05:01:39;;;;;;;6.63;4.20;;;20.00;99.90;;;;;;5070108;28;20206;-70
2021/07/12 05:04:07;;;;;;;3.90;2.97;;;20.10;99.90;;;;;;5069896;28;20234;-70
2021/07/12 05:06:35;;;;;;;3.33;2.90;;;20.10;99.90;;;;;;5071518;28;20206;-71
2021/07/12 05:09:04;;;;;;;5.20;3.72;;;20.10;99.90;;;;;;5074933;28;20202;-70
2021/07/12 05:11:33;;;;;;;3.00;2.40;;;20.10;99.90;;;;;;5074064;28;20206;-72
2021/07/12 05:14:00;;;;;;;5.03;3.55;;;20.10;99.90;;;;;;5074440;28;20691;-72
2021/07/12 05:16:28;;;;;;;3.92;3.45;;;20.00;99.90;;;;;;5073963;28;20259;-71
2021/07/12 05:18:56;;;;;;;4.32;3.92;;;20.00;99.90;;;;;;5060202;28;20252;-71
2021/07/12 05:21:23;;;;;;;4.13;3.72;;;20.00;99.90;;;;;;5073865;28;20259;-73
2021/07/12 05:23:50;;;;;;;4.28;3.40;;;20.10;99.90;;;;;;5073509;28;20614;-71
2021/07/12 05:26:18;;;;;;;5.95;3.30;;;20.20;99.90;;;;;;5073147;28;20214;-72
2021/07/12 05:28:45;;;;;;;3.70;3.13;;;20.10;99.90;;;;;;5073787;28;20259;-70
2021/07/12 05:31:12;;;;;;;3.50;3.17;;;20.00;99.90;;;;;;5073296;28;20202;-72
2021/07/12 05:33:39;;;;;;;5.65;3.72;;;20.00;99.90;;;;;;5073348;28;20689;-71
2021/07/12 05:36:06;;;;;;;5.07;3.75;;;19.90;99.90;;;;;;5073370;28;20739;-70
2021/07/12 05:38:33;;;;;;;3.80;3.40;;;19.90;99.90;;;;;;5073863;28;20751;-72
2021/07/12 05:41:00;;;;;;;3.45;3.15;;;20.00;99.90;;;;;;5060017;28;20198;-73
2021/07/12 05:43:29;;;;;;;7.18;2.90;;;19.90;99.90;;;;;;5073227;28;20259;-73
2021/07/12 05:45:56;;;;;;;4.13;3.67;;;20.00;99.90;;;;;;5073294;28;20283;-70
2021/07/12 05:48:23;;;;;;;4.20;3.80;;;20.00;99.90;;;;;;5073219;28;20263;-70
2021/07/12 05:50:50;;;;;;;4.13;3.30;;;20.00;99.90;;;;;;5073380;28;20268;-73
2021/07/12 05:53:17;;;;;;;6.25;3.42;;;19.90;99.90;;;;;;5073296;28;20203;-74
2021/07/12 05:55:44;;;;;;;7.35;3.67;;;19.90;99.90;;;;;;5073266;28;20210;-71
2021/07/12 05:58:11;;;;;;;4.22;3.25;;;19.90;99.90;;;;;;5072862;28;20206;-71
2021/07/12 06:00:40;;;;;;;3.85;3.33;;;19.90;99.90;;;;;;5073215;28;20202;-74
2021/07/12 06:03:07;;;;;;;4.03;3.25;;;19.90;99.90;;;;;;5072818;28;20263;-71
2021/07/12 06:05:34;;;;;;;4.32;2.92;;;19.90;99.90;;;;;;5073375;28;20283;-75
2021/07/12 06:08:01;;;;;;;3.17;2.60;;;19.80;99.90;;;;;;5073150;28;20743;-74
2021/07/12 06:10:28;;;;;;;5.03;3.60;;;19.80;99.90;;;;;;5072509;28;20210;-73
2021/07/12 06:12:55;;;;;;;5.40;3.03;;;19.80;99.90;;;;;;5073058;28;20283;-73
2021/07/12 06:15:22;;;;;;;4.18;3.30;;;19.70;99.90;;;;;;5072529;28;20271;-73
2021/07/12 06:17:51;;;;;;;3.92;3.20;;;19.80;99.90;;;;;;5072230;28;20626;-72
2021/07/12 06:20:18;;;;;;;3.35;3.13;;;19.70;99.90;;;;;;5072131;28;20724;-73
2021/07/12 06:22:47;;;;;;;3.58;2.83;;;19.60;99.90;;;;;;5072979;28;20299;-71
2021/07/12 06:25:15;;;;;;;5.00;4.00;;;19.70;99.90;;;;;;5072026;28;20234;-71
2021/07/12 06:27:42;;;;;;;5.00;3.78;;;19.70;99.90;;;;;;5072839;28;20264;-70
2021/07/12 06:30:10;;;;;;;7.18;4.82;;;19.70;99.90;;;;;;5072068;28;20267;-72
2021/07/12 06:32:37;;;;;;;6.57;3.20;;;19.60;99.90;;;;;;5071639;28;20260;-71
2021/07/12 06:35:07;;;;;;;4.55;4.15;;;19.70;99.90;;;;;;5064306;28;20585;-71
2021/07/12 06:37:34;;;;;;;4.70;3.88;;;19.60;99.90;;;;;;5070777;28;20673;-71
2021/07/12 06:40:01;;;;;;;4.35;3.67;;;19.60;99.90;;;;;;5070948;28;20268;-71
2021/07/12 06:42:28;;;;;;;5.93;3.78;;;19.50;99.90;;;;;;5071041;28;20728;-71
2021/07/12 06:44:57;;;;;;;4.47;3.97;;;19.30;99.90;;;;;;5071599;28;20606;-72
2021/07/12 06:47:25;;;;;;;5.25;3.60;;;19.30;99.90;;;;;;5077857;28;20694;-73
2021/07/12 06:49:52;;;;;;;5.00;3.72;;;19.30;99.90;;;;;;5072129;28;20575;-77
2021/07/12 06:52:21;;;;;;;7.20;3.90;;;19.40;99.90;;;;;;5071488;28;20206;-75
2021/07/12 06:54:48;;;;;;;4.07;3.67;;;19.50;99.90;;;;;;5072394;28;20202;-76
2021/07/12 06:57:16;;;;;;;4.63;4.13;;;19.40;99.90;;;;;;5071391;28;20569;-75
2021/07/12 06:59:43;;;;;;;6.30;3.88;;;19.20;99.90;;;;;;5071475;28;20206;-76
2021/07/12 07:02:11;;;;;;;7.35;3.80;;;19.20;99.90;;;;;;5072000;28;20206;-74
2021/07/12 07:04:41;;;;;;;4.50;4.13;;;19.40;99.90;;;;;;5071772;28;20293;-72
2021/07/12 07:07:08;;;;;;;5.50;4.72;;;19.40;99.90;;;;;;5071377;28;20292;-70
2021/07/12 07:09:36;;;;;;;5.25;4.80;;;19.40;99.90;;;;;;5073628;28;20197;-77
2021/07/12 07:12:04;;;;;;;5.30;3.97;;;19.50;99.90;;;;;;5072128;28;20202;-79
2021/07/12 07:14:31;;;;;;;5.35;4.85;;;19.30;99.90;;;;;;5072587;28;20267;-77
2021/07/12 07:16:58;;;;;;;9.30;4.07;;;19.20;99.90;;;;;;5071769;28;20618;-76
2021/07/12 07:19:25;;;;;;;6.45;4.82;;;19.10;99.90;;;;;;5071372;28;20665;-76
2021/07/12 07:21:54;;;;;;;4.68;4.18;;;19.10;99.90;;;;;;5071250;28;20206;-79
2021/07/12 07:24:21;;;;;;;6.32;5.20;;;19.30;99.90;;;;;;5071170;28;20257;-76
2021/07/12 07:26:50;;;;;;;5.30;4.50;;;19.20;99.90;;;;;;5071449;28;20234;-80
2021/07/12 07:29:17;;;;;;;4.22;3.83;;;19.30;99.90;;;;;;5070955;28;20674;-75
2021/07/12 07:31:45;;;;;;;3.67;3.28;;;19.20;99.90;;;;;;5071304;28;20206;-77
2021/07/12 07:34:12;;;;;;;3.78;3.35;;;19.20;99.90;;;;;;5070246;28;20203;-76
2021/07/12 07:36:40;;;;;;;4.82;4.38;;;19.10;99.90;;;;;;5071276;28;20210;-76
2021/07/12 07:39:08;;;;;;;3.70;3.40;;;19.30;99.90;;;;;;5069865;28;20209;-77
2021/07/12 07:41:36;;;;;;;4.28;3.88;;;19.20;99.90;;;;;;5070658;28;20202;-75
2021/07/12 07:44:05;;;;;;;4.68;4.03;;;19.30;99.90;;;;;;5071732;28;20210;-79
2021/07/12 07:46:32;;;;;;;5.45;3.28;;;19.30;99.90;;;;;;5081336;28;20233;-77
2021/07/12 07:48:59;;;;;;;4.82;3.90;;;19.40;99.90;;;;;;5081187;28;20202;-76
2021/07/12 07:51:27;;;;;;;3.90;3.60;;;19.40;99.90;;;;;;5071601;28;20214;-81
2021/07/12 07:53:54;;;;;;;3.65;3.35;;;19.40;99.90;;;;;;5071041;28;20662;-84
2021/07/12 07:56:21;;;;;;;3.40;3.10;;;19.40;99.90;;;;;;5073639;28;20217;-76
2021/07/12 07:58:48;;;;;;;4.82;3.80;;;19.30;99.90;;;;;;5071095;28;20214;-73
2021/07/12 08:01:16;;;;;;;5.28;3.92;;;19.30;99.90;;;;;;5070748;28;20271;-76
2021/07/12 08:03:43;;;;;;;4.97;4.30;;;19.20;99.90;;;;;;5076869;28;20210;-74
2021/07/12 08:06:10;;;;;;;4.32;3.92;;;19.20;99.90;;;;;;5075927;28;20278;-72
2021/07/12 08:08:37;;;;;;;3.42;3.13;;;19.30;99.90;;;;;;5070335;28;20662;-76
2021/07/12 08:11:04;;;;;;;4.38;3.97;;;19.40;99.90;;;;;;5070855;28;20210;-71
2021/07/12 08:13:31;;;;;;;4.13;3.30;;;19.10;99.90;;;;;;5070739;28;20209;-74
2021/07/12 08:15:58;;;;;;;5.22;3.90;;;18.90;99.90;;;;;;5071281;28;20262;-75
2021/07/12 08:18:26;;;;;;;3.88;3.42;;;18.80;99.90;;;;;;5076560;28;20279;-74
2021/07/12 08:20:53;;;;;;;3.53;3.22;;;18.90;99.90;;;;;;5070637;28;20202;-82
2021/07/12 08:23:20;;;;;;;3.47;3.17;;;19.10;99.90;;;;;;5076558;28;20661;-70
2021/07/12 08:25:47;;;;;;;4.13;3.80;;;19.10;99.90;;;;;;5070294;28;20287;-75
2021/07/12 08:28:14;;;;;;;5.47;4.75;;;18.90;99.90;;;;;;5069922;28;20727;-71
2021/07/12 08:30:41;;;;;;;4.85;4.38;;;18.90;99.90;;;;;;5069819;28;20267;-69
2021/07/12 08:33:08;;;;;;;3.40;3.05;;;19.10;99.90;;;;;;5069649;28;20252;-69
2021/07/12 08:35:37;;;;;;;2.90;2.70;;;19.20;99.90;;;;;;5069881;28;22541;-70
2021/07/12 08:38:05;;;;;;;3.30;3.00;;;19.10;99.90;;;;;;5070185;28;20202;-72
2021/07/12 08:40:33;;;;;;;3.13;2.72;;;19.20;99.90;;;;;;5070286;28;20586;-70
2021/07/12 08:43:00;;;;;;;2.95;2.75;;;19.30;99.90;;;;;;5070257;28;20267;-70
2021/07/12 08:45:28;;;;;;;2.60;2.40;;;19.40;99.90;;;;;;5069166;28;20241;-70
2021/07/12 08:47:57;;;;;;;3.47;2.95;;;19.70;99.90;;;;;;5078672;28;20669;-77
2021/07/12 08:50:27;;;;;;;3.53;2.85;;;19.80;99.90;;;;;;5071310;28;20842;-69
2021/07/12 08:52:56;;;;;;;3.38;3.08;;;20.00;99.90;;;;;;5077255;28;20700;-72
2021/07/12 08:55:23;;;;;;;3.15;2.75;;;20.00;99.90;;;;;;5069767;28;20674;-83
2021/07/12 08:58:03;;;;;;;3.30;3.10;;;20.00;99.90;;;;;;5070114;28;20263;-83
2021/07/12 09:00:48;;;;;;;3.03;2.83;;;20.20;99.90;;;;;;5069636;28;20206;-85
2021/07/12 09:03:18;;;;;;;2.92;2.63;;;20.20;99.90;;;;;;5069644;28;20202;-68
2021/07/12 09:06:00;;;;;;;3.78;3.28;;;20.20;99.90;;;;;;5077039;28;20244;-81
2021/07/12 09:08:53;;;;;;;2.47;2.28;;;20.10;99.90;;;;;;5069458;28;20259;-69
2021/07/12 09:11:25;;;;;;;3.35;2.88;;;20.20;99.90;;;;;;5073283;28;20259;-70
2021/07/12 09:14:01;;;;;;;3.70;3.40;;;20.30;99.90;;;;;;5073048;28;20677;-69
2021/07/12 09:16:36;;;;;;;4.15;3.28;;;20.20;99.90;;;;;;5071415;28;20591;-69
2021/07/12 09:19:18;;;;;;;3.53;3.33;;;20.30;99.90;;;;;;5070260;28;20263;-75
2021/07/12 09:21:47;;;;;;;5.32;3.95;;;20.30;99.90;;;;;;5071918;28;20197;-83
2021/07/12 09:24:37;;;;;;;4.68;3.83;;;20.30;99.90;;;;;;5076350;28;20665;-81
2021/07/12 09:27:08;;;;;;;4.20;3.80;;;20.20;99.90;;;;;;5079486;28;20222;-72
2021/07/12 09:29:36;;;;;;;6.00;4.25;;;20.10;99.90;;;;;;5081225;28;20586;-72
2021/07/12 09:32:05;;;;;;;5.18;4.32;;;20.20;99.90;;;;;;5073193;28;20211;-80
2021/07/12 09:34:32;;;;;;;5.75;3.30;;;20.20;99.90;;;;;;5070054;28;20202;-75
2021/07/12 09:36:59;;;;;;;5.72;5.00;;;20.00;99.90;;;;;;5069871;28;20609;-71
2021/07/12 09:39:32;;;;;;;5.72;5.18;;;19.80;99.90;;;;;;5069797;28;20260;-76
2021/07/12 09:42:01;;;;;;;5.38;4.88;;;19.90;99.90;;;;;;5071082;28;20244;-71
2021/07/12 09:44:29;;;;;;;4.03;3.72;;;19.60;99.90;;;;;;5069533;28;20210;-71
2021/07/12 09:47:02;;;;;;;4.47;3.95;;;19.60;99.90;;;;;;5069594;28;20230;-90
2021/07/12 09:49:29;;;;;;;5.80;4.93;;;19.60;99.90;;;;;;5064172;28;20202;-88
2021/07/12 09:51:59;;;;;;;4.80;4.32;;;19.40;99.90;;;;;;5061976;28;20203;-71
2021/07/12 09:54:31;;;;;;;4.35;3.95;;;19.40;99.90;;;;;;5075898;28;20982;-72
2021/07/12 09:57:06;;;;;;;4.90;4.53;;;19.50;99.90;;;;;;5083468;28;20741;-78
2021/07/12 09:59:34;;;;;;;4.70;4.30;;;19.50;99.90;;;;;;5074522;28;20205;-80
2021/07/12 10:02:02;;;;;;;4.55;4.15;;;19.60;99.90;;;;;;5078548;28;20260;-72
2021/07/12 10:04:29;;;;;;;4.22;3.92;;;19.80;99.90;;;;;;5072208;28;20297;-72
2021/07/12 10:06:57;;;;;;;4.88;4.38;;;19.90;99.90;;;;;;5071172;28;20261;-73
2021/07/12 10:09:25;;;;;;;5.13;4.05;;;20.00;99.90;;;;;;5072597;28;20271;-67
2021/07/12 10:11:55;;;;;;;4.22;3.83;;;20.00;99.90;;;;;;5073314;28;20206;-76
2021/07/12 10:14:23;;;;;;;5.63;4.20;;;19.80;99.90;;;;;;5075081;28;20595;-72
2021/07/12 10:16:51;;;;;;;5.47;4.97;;;19.60;99.90;;;;;;5072694;28;20248;-73
2021/07/12 10:19:19;;;;;;;5.20;4.75;;;19.50;99.90;;;;;;5076168;28;20202;-72
2021/07/12 10:21:51;;;;;;;4.93;4.53;;;19.30;99.90;;;;;;5075323;28;20202;-72
2021/07/12 10:24:22;;;;;;;5.32;4.85;;;19.40;99.90;;;;;;5072469;28;20264;-72
2021/07/12 10:26:57;;;;;;;5.50;5.00;;;19.40;99.90;;;;;;5072656;28;20230;-90
2021/07/12 10:29:30;;;;;;;3.38;3.13;;;19.30;99.90;;;;;;5071826;28;20559;-72
2021/07/12 10:32:10;;;;;;;3.90;2.95;;;19.10;99.90;;;;;;5072477;28;20598;-83
2021/07/12 10:34:40;;;;;;;3.08;2.03;;;18.70;99.90;;;;;;5066696;28;20256;-69
2021/07/12 10:37:16;;;;;;;2.45;2.22;;;18.70;99.90;;;;;;5070904;28;20198;-72
2021/07/12 10:40:10;;;;;;;3.60;2.03;;;18.60;99.90;;;;;;5078822;28;20206;-71
2021/07/12 10:43:02;;;;;;;2.28;2.03;;;18.40;99.90;;;;;;5082257;28;20242;-74
2021/07/12 10:45:43;;;;;;;2.92;2.20;;;18.30;99.90;;;;;;5068071;28;20275;-74
2021/07/12 10:48:16;;;;;;;2.00;1.85;;;18.20;99.90;;;;;;5071932;28;20205;-75
2021/07/12 10:50:56;;;;;;;2.65;2.00;;;18.10;99.90;;;;;;5072419;28;20202;-75
2021/07/12 10:53:39;;;;;;;1.98;1.75;;;18.00;99.90;;;;;;5071932;28;20259;-75
2021/07/12 10:56:16;;;;;;;4.25;2.70;;;17.90;99.90;;;;;;5071365;28;20245;-74
2021/07/12 10:58:49;;;;;;;2.78;1.85;;;17.80;99.90;;;;;;5071968;28;20206;-78
2021/07/12 11:01:38;;;;;;;4.25;2.97;;;18.00;99.90;;;;;;5071860;28;20264;-74
2021/07/12 11:04:31;;;;;;;5.55;2.88;;;18.10;99.90;;;;;;5063611;28;20214;-74
2021/07/12 11:06:58;;;;;;;8.13;3.72;;;18.30;99.90;;;;;;5071675;28;20792;-74
2021/07/12 11:09:51;;;;;;;3.45;3.10;;;18.20;99.90;;;;;;5071339;28;20205;-73
2021/07/12 11:12:35;;;;;;;3.97;3.42;;;18.30;99.90;;;;;;5064656;28;20210;-74
2021/07/12 11:15:12;;;;;;;4.43;2.95;;;18.20;99.90;;;;;;5071327;28;20198;-74
2021/07/12 11:17:50;;;;;;;4.72;3.97;;;18.20;99.90;;;;;;5069804;28;20568;-74
2021/07/12 11:20:18;;;;;;;3.38;3.08;;;18.20;99.90;;;;;;5068352;28;20252;-73
2021/07/12 11:22:54;;;;;;;3.97;3.08;;;18.30;99.90;;;;;;5070956;28;20280;-76
2021/07/12 11:25:39;;;;;;;3.78;3.13;;;18.20;99.90;;;;;;5070152;28;20632;-76
2021/07/12 11:28:11;;;;;;;3.55;3.25;;;18.10;99.90;;;;;;5070299;28;20305;-76
2021/07/12 11:30:41;;;;;;;5.75;2.97;;;18.20;99.90;;;;;;5069578;28;20202;-76
2021/07/12 11:33:08;;;;;;;3.08;2.33;;;18.40;99.90;;;;;;5081174;28;20694;-75
2021/07/12 11:35:35;;;;;;;3.75;3.38;;;18.30;99.90;;;;;;5087321;28;20201;-74
2021/07/12 11:38:04;;;;;;;7.25;3.05;;;18.10;99.90;;;;;;5091600;28;20205;-75
2021/07/12 11:40:32;;;;;;;3.08;2.53;;;18.10;99.90;;;;;;5081488;28;20217;-71
2021/07/12 11:42:59;;;;;;;3.30;2.95;;;18.10;99.90;;;;;;5072683;28;20645;-74
2021/07/12 11:45:26;;;;;;;2.35;2.08;;;18.10;99.90;;;;;;5087181;28;21033;-73
2021/07/12 11:47:56;;;;;;;2.47;2.22;;;18.00;99.90;;;;;;5084028;28;20279;-77
2021/07/12 11:50:25;;;;;;;3.55;2.40;;;18.20;99.90;;;;;;5088375;28;20292;-81
2021/07/12 11:52:53;;;;;;;5.10;2.92;;;18.30;99.90;;;;;;5086637;28;20198;-76
2021/07/12 11:55:22;;;;;;;2.60;2.40;;;18.00;99.90;;;;;;5090448;28;20206;-79
2021/07/12 11:57:55;;;;;;;3.17;2.88;;;18.00;99.90;;;;;;5085785;28;20282;-82
2021/07/12 12:00:25;;;;;;;4.35;2.92;;;18.20;99.90;;;;;;5076215;28;20604;-84
2021/07/12 12:02:59;;;;;;;5.78;3.25;;;18.00;99.90;;;;;;5075818;28;20259;-81
2021/07/12 12:05:27;;;;;;;3.45;2.50;;;18.20;99.90;;;;;;5070725;28;20210;-83
2021/07/12 12:07:57;;;;;;;4.85;2.97;;;18.10;99.90;;;;;;5069332;28;20246;-82
2021/07/12 12:10:26;;;;;;;5.03;2.65;;;18.50;99.90;;;;;;5057620;28;20571;-82
2021/07/12 12:12:55;;;;;;;5.28;3.05;;;18.60;99.90;;;;;;5079561;28;20254;-78
2021/07/12 12:15:24;;;;;;;3.55;2.35;;;18.60;99.90;;;;;;5070958;28;20206;-75
2021/07/12 12:17:55;;;;;;;3.95;2.25;;;18.20;99.90;;;;;;5070066;28;20206;-75
2021/07/12 12:20:28;;;;;;;3.05;2.80;;;18.30;99.90;;;;;;5070392;28;20202;-74
2021/07/12 12:23:11;;;;;;;2.90;2.55;;;18.40;99.90;;;;;;5070715;28;20217;-75
2021/07/12 12:25:45;;;;;;;3.28;2.70;;;18.50;99.90;;;;;;5070143;28;20206;-74
2021/07/12 12:28:26;;;;;;;5.72;2.70;;;18.40;99.90;;;;;;5070026;28;20296;-77
2021/07/12 12:30:54;;;;;;;2.92;2.50;;;18.30;99.90;;;;;;5062738;28;20573;-75
2021/07/12 12:33:31;;;;;;;5.05;3.05;;;18.40;99.90;;;;;;5070040;28;20205;-75
2021/07/12 12:36:02;;;;;;;3.95;2.50;;;18.40;99.90;;;;;;5066147;28;20255;-74
2021/07/12 12:38:30;;;;;;;2.95;2.75;;;18.40;99.90;;;;;;5070379;28;20275;-74
2021/07/12 12:40:59;;;;;;;3.33;1.92;;;18.80;99.90;;;;;;5069137;28;20202;-75
2021/07/12 12:43:27;;;;;;;3.58;2.40;;;18.90;99.90;;;;;;5069777;28;20214;-76
2021/07/12 12:45:55;;;;;;;6.40;2.67;;;19.20;99.90;;;;;;5087192;28;20201;-75
2021/07/12 12:48:41;;;;;;;3.40;2.85;;;19.50;99.90;;;;;;5089746;28;20229;-75
2021/07/12 12:51:25;;;;;;;4.65;3.17;;;19.50;99.90;;;;;;5084085;28;20287;-76
2021/07/12 12:54:13;;;;;;;3.85;2.42;;;19.50;99.90;;;;;;5084992;28;20258;-74
2021/07/12 12:56:49;;;;;;;5.82;3.20;;;19.40;99.90;;;;;;5075406;28;20248;-75
2021/07/12 12:59:17;;;;;;;3.45;2.90;;;19.20;99.90;;;;;;5087000;28;20270;-74
2021/07/12 13:01:45;;;;;;;2.10;1.90;;;19.20;99.90;;;;;;5085446;28;20559;-75